createdAt,value
2019-05-09T00:00:14.154Z,99248.61
2019-05-09T00:01:16.748Z,99249.91
2019-05-09T00:02:34.268Z,99249.51
2019-05-09T00:03:36.581Z,99249.51
2019-05-09T00:04:38.796Z,99251.58
2019-05-09T00:05:41.142Z,99242.84
2019-05-09T00:06:43.341Z,99244.28
2019-05-09T00:07:45.535Z,99245.05
2019-05-09T00:08:47.743Z,99243.75
2019-05-09T00:09:49.943Z,99247.30
2019-05-09T00:10:53.496Z,99243.75
2019-05-09T00:11:56.049Z,99241.54
2019-05-09T00:12:58.240Z,99240.23
2019-05-09T00:14:00.435Z,99244.69
2019-05-09T00:15:04.374Z,99241.14
2019-05-09T00:16:06.590Z,99245.05
2019-05-09T00:17:08.803Z,99245.05
2019-05-09T00:18:11.015Z,99246.36
2019-05-09T00:19:13.621Z,99249.91
2019-05-09T00:20:29.044Z,99244.15
2019-05-09T00:21:35.658Z,99241.14
2019-05-09T00:22:37.862Z,99244.55
2019-05-09T00:23:40.074Z,99245.99
2019-05-09T00:24:44.535Z,99246.89
2019-05-09T00:25:46.218Z,99247.66
2019-05-09T00:26:48.429Z,99243.65
2019-05-09T00:27:50.621Z,99242.84
2019-05-09T00:28:56.234Z,99246.36
2019-05-09T00:29:58.447Z,99240.64
2019-05-09T00:31:09.196Z,99243.25
2019-05-09T00:32:25.034Z,99242.84
2019-05-09T00:33:29.356Z,99247.16
2019-05-09T00:34:40.343Z,99243.25
2019-05-09T00:35:44.258Z,99242.84
2019-05-09T00:36:46.399Z,99244.95
2019-05-09T00:38:13.426Z,99245.45
2019-05-09T00:39:15.625Z,99242.34
2019-05-09T00:40:17.831Z,99239.73
2019-05-09T00:41:20.051Z,99248.47
2019-05-09T00:42:24.048Z,99240.14
2019-05-09T00:43:26.259Z,99244.95
2019-05-09T00:44:30.256Z,99247.16
2019-05-09T00:45:54.297Z,99247.56
2019-05-09T00:47:24.673Z,99251.08
2019-05-09T00:48:33.711Z,99245.86
2019-05-09T00:49:36.041Z,99248.47
2019-05-09T00:50:38.247Z,99252.39
2019-05-09T00:51:40.469Z,99249.28
2019-05-09T00:52:43.102Z,99248.88
2019-05-09T00:53:45.382Z,99248.88
2019-05-09T00:54:47.594Z,99252.29
2019-05-09T00:55:49.799Z,99251.48
2019-05-09T00:56:54.022Z,99248.88
2019-05-09T00:57:55.872Z,99248.88
2019-05-09T00:58:58.143Z,99244.05
2019-05-09T01:00:00.344Z,99243.65
2019-05-09T01:01:04.360Z,99249.28
2019-05-09T01:02:06.416Z,99248.88
2019-05-09T01:03:08.608Z,99249.28
2019-05-09T01:04:10.810Z,99250.58
2019-05-09T01:05:13.308Z,99245.77
2019-05-09T01:06:15.594Z,99245.36
2019-05-09T01:07:17.816Z,99245.27
2019-05-09T01:08:20.004Z,99249.28
2019-05-09T01:09:24.101Z,99245.36
2019-05-09T01:10:26.084Z,99245.77
2019-05-09T01:11:28.300Z,99246.66
2019-05-09T01:12:30.507Z,99242.75
2019-05-09T01:13:34.069Z,99244.86
2019-05-09T01:14:36.603Z,99250.98
2019-05-09T01:15:38.853Z,99242.75
2019-05-09T01:16:41.050Z,99249.68
2019-05-09T01:17:44.197Z,99250.58
2019-05-09T01:18:46.527Z,99253.59
2019-05-09T01:19:48.756Z,99247.47
2019-05-09T01:20:53.006Z,99247.47
2019-05-09T01:21:54.862Z,99247.06
2019-05-09T01:22:57.061Z,99245.36
2019-05-09T01:23:59.276Z,99247.47
2019-05-09T01:25:01.471Z,99245.77
2019-05-09T01:26:03.997Z,99249.68
2019-05-09T01:27:06.282Z,99248.38
2019-05-09T01:28:08.488Z,99242.75
2019-05-09T01:29:10.688Z,99243.55
2019-05-09T01:30:13.497Z,99242.65
2019-05-09T01:31:16.038Z,99242.25
2019-05-09T01:32:25.554Z,99240.54
2019-05-09T01:33:33.379Z,99239.64
2019-05-09T01:34:35.864Z,99237.02
2019-05-09T01:35:38.055Z,99243.15
2019-05-09T01:36:57.940Z,99238.33
2019-05-09T01:38:00.152Z,99237.43
2019-05-09T01:39:03.264Z,99240.04
2019-05-09T01:40:05.641Z,99243.55
2019-05-09T01:41:07.866Z,99244.86
2019-05-09T01:42:10.070Z,99243.95
2019-05-09T01:43:13.827Z,99240.44
2019-05-09T01:44:16.270Z,99246.16
2019-05-09T01:45:18.466Z,99246.97
2019-05-09T01:46:20.654Z,99250.08
2019-05-09T01:47:23.536Z,99246.97
2019-05-09T01:48:25.792Z,99243.05
2019-05-09T01:49:27.990Z,99241.25
2019-05-09T01:50:30.186Z,99243.05
2019-05-09T01:51:33.723Z,99244.77
2019-05-09T01:52:36.091Z,99240.44
2019-05-09T01:53:43.714Z,99241.34
2019-05-09T01:54:46.937Z,99236.13
2019-05-09T01:55:58.535Z,99235.62
2019-05-09T01:57:03.198Z,99240.44
2019-05-09T01:58:04.618Z,99245.66
2019-05-09T01:59:06.815Z,99240.84
2019-05-09T02:00:09.014Z,99244.36
2019-05-09T02:01:13.248Z,99237.83
2019-05-09T02:02:15.051Z,99237.33
2019-05-09T02:03:17.267Z,99236.93
2019-05-09T02:04:19.500Z,99244.36
2019-05-09T02:05:23.955Z,99239.14
2019-05-09T02:06:25.563Z,99240.44
2019-05-09T02:07:27.770Z,99236.03
2019-05-09T02:08:30.018Z,99238.73
2019-05-09T02:09:34.268Z,99232.61
2019-05-09T02:10:36.141Z,99235.62
2019-05-09T02:11:42.570Z,99234.31
2019-05-09T02:12:43.106Z,99237.83
2019-05-09T02:13:45.328Z,99237.43
2019-05-09T02:14:54.344Z,99236.53
2019-05-09T02:16:19.690Z,99234.31
2019-05-09T02:17:58.115Z,99237.83
2019-05-09T02:19:09.631Z,99229.50
2019-05-09T02:20:13.675Z,99230.40
2019-05-09T02:21:15.712Z,99230.40
2019-05-09T02:22:36.388Z,99233.41
2019-05-09T02:23:38.599Z,99232.11
2019-05-09T02:24:40.786Z,99233.41
2019-05-09T02:25:43.810Z,99227.69
2019-05-09T02:26:46.091Z,99226.39
2019-05-09T02:27:48.285Z,99228.19
2019-05-09T02:28:50.605Z,99229.09
2019-05-09T02:29:54.429Z,99225.08
2019-05-09T02:30:56.702Z,99226.89
2019-05-09T02:31:58.900Z,99232.11
2019-05-09T02:33:01.095Z,99229.50
2019-05-09T02:34:04.951Z,99222.87
2019-05-09T02:35:07.151Z,99226.39
2019-05-09T02:36:09.897Z,99228.19
2019-05-09T02:37:12.262Z,99232.11
2019-05-09T02:38:14.461Z,99226.39
2019-05-09T02:39:18.857Z,99227.29
2019-05-09T02:40:20.513Z,99230.80
2019-05-09T02:41:22.694Z,99226.89
2019-05-09T02:42:24.891Z,99228.19
2019-05-09T02:43:29.013Z,99223.77
2019-05-09T02:44:30.964Z,99226.89
2019-05-09T02:45:39.448Z,99225.48
2019-05-09T02:46:58.826Z,99223.77
2019-05-09T02:48:00.095Z,99230.40
2019-05-09T02:49:02.303Z,99226.39
2019-05-09T02:50:04.505Z,99229.09
2019-05-09T02:51:09.183Z,99229.00
2019-05-09T02:52:10.575Z,99221.56
2019-05-09T02:53:12.824Z,99227.39
2019-05-09T02:54:15.014Z,99227.29
2019-05-09T02:55:18.408Z,99230.30
2019-05-09T02:56:20.922Z,99226.39
2019-05-09T02:57:23.115Z,99228.09
2019-05-09T02:58:28.212Z,99225.48
2019-05-09T02:59:52.323Z,99230.80
2019-05-09T03:01:18.890Z,99226.39
2019-05-09T03:02:38.221Z,99227.69
2019-05-09T03:03:39.956Z,99226.78
2019-05-09T03:04:42.182Z,99228.50
2019-05-09T03:05:44.380Z,99222.87
2019-05-09T03:06:49.249Z,99223.27
2019-05-09T03:07:50.475Z,99229.80
2019-05-09T03:08:52.678Z,99227.19
2019-05-09T03:09:54.896Z,99228.19
2019-05-09T03:10:59.060Z,99225.08
2019-05-09T03:12:20.489Z,99228.09
2019-05-09T03:13:04.846Z,99230.70
2019-05-09T03:14:09.091Z,99233.31
2019-05-09T03:15:10.888Z,99228.50
2019-05-09T03:16:14.514Z,99228.50
2019-05-09T03:17:18.541Z,99233.72
2019-05-09T03:18:20.583Z,99227.59
2019-05-09T03:19:22.803Z,99232.81
2019-05-09T03:20:34.042Z,99227.19
2019-05-09T03:21:49.681Z,99229.80
2019-05-09T03:22:51.866Z,99229.40
2019-05-09T03:23:54.110Z,99228.50
2019-05-09T03:24:58.805Z,99230.70
2019-05-09T03:26:00.181Z,99228.50
2019-05-09T03:27:08.529Z,99228.50
2019-05-09T03:28:28.325Z,99228.40
2019-05-09T03:29:33.885Z,99238.04
2019-05-09T03:30:39.710Z,99232.81
2019-05-09T03:31:42.011Z,99235.02
2019-05-09T03:32:44.217Z,99241.15
2019-05-09T03:33:49.795Z,99233.22
2019-05-09T03:34:50.294Z,99235.42
2019-05-09T03:35:52.500Z,99236.33
2019-05-09T03:36:54.707Z,99233.22
2019-05-09T03:38:08.140Z,99238.04
2019-05-09T03:39:09.824Z,99237.63
2019-05-09T03:40:12.043Z,99238.94
2019-05-09T03:41:14.234Z,99245.47
2019-05-09T03:42:21.295Z,99242.45
2019-05-09T03:43:20.300Z,99246.37
2019-05-09T03:44:22.487Z,99245.47
2019-05-09T03:45:24.692Z,99248.48
2019-05-09T03:46:47.606Z,99249.39
2019-05-09T03:47:53.846Z,99250.29
2019-05-09T03:48:58.301Z,99249.39
2019-05-09T03:50:10.997Z,99240.65
2019-05-09T03:51:13.194Z,99242.86
2019-05-09T03:52:17.661Z,99239.75
2019-05-09T03:53:19.276Z,99241.05
2019-05-09T03:54:21.498Z,99242.36
2019-05-09T03:55:33.500Z,99243.66
2019-05-09T03:56:39.818Z,99241.05
2019-05-09T03:57:47.644Z,99239.75
2019-05-09T03:58:49.901Z,99241.05
2019-05-09T03:59:52.172Z,99242.45
2019-05-09T04:00:54.370Z,99236.73
2019-05-09T04:01:59.045Z,99238.84
2019-05-09T04:03:01.457Z,99238.04
2019-05-09T04:04:03.666Z,99243.27
2019-05-09T04:05:07.990Z,99241.95
2019-05-09T04:06:09.650Z,99240.25
2019-05-09T04:07:11.852Z,99238.44
2019-05-09T04:08:37.465Z,99236.33
2019-05-09T04:09:39.859Z,99234.13
2019-05-09T04:10:42.049Z,99241.05
2019-05-09T04:11:44.251Z,99237.54
2019-05-09T04:12:56.227Z,99236.73
2019-05-09T04:13:54.901Z,99238.84
2019-05-09T04:14:58.436Z,99239.34
2019-05-09T04:16:00.796Z,99236.33
2019-05-09T04:17:03.092Z,99234.22
2019-05-09T04:18:05.336Z,99232.41
2019-05-09T04:19:11.444Z,99237.13
2019-05-09T04:20:13.674Z,99230.61
2019-05-09T04:21:17.565Z,99237.13
2019-05-09T04:22:19.917Z,99241.95
2019-05-09T04:23:22.098Z,99241.95
2019-05-09T04:24:25.335Z,99241.95
2019-05-09T04:25:31.416Z,99242.36
2019-05-09T04:26:50.278Z,99244.97
2019-05-09T04:27:52.704Z,99248.48
2019-05-09T04:28:54.918Z,99253.70
2019-05-09T04:29:57.485Z,99251.09
2019-05-09T04:30:59.727Z,99249.79
2019-05-09T04:32:01.925Z,99252.41
2019-05-09T04:33:04.144Z,99254.61
2019-05-09T04:34:07.776Z,99255.91
2019-05-09T04:35:10.384Z,99253.30
2019-05-09T04:36:15.025Z,99254.11
2019-05-09T04:37:17.996Z,99255.41
2019-05-09T04:38:20.362Z,99258.53
2019-05-09T04:39:23.819Z,99259.33
2019-05-09T04:40:31.585Z,99253.70
2019-05-09T04:41:30.113Z,99262.95
2019-05-09T04:42:35.043Z,99256.72
2019-05-09T04:43:39.744Z,99261.54
2019-05-09T04:45:03.208Z,99264.65
2019-05-09T04:46:02.352Z,99256.41
2019-05-09T04:47:04.787Z,99262.23
2019-05-09T04:48:08.565Z,99266.16
2019-05-09T04:49:10.783Z,99261.53
2019-05-09T04:50:15.327Z,99266.88
2019-05-09T04:51:18.020Z,99265.05
2019-05-09T04:52:20.371Z,99267.25
2019-05-09T04:53:22.594Z,99266.75
2019-05-09T04:54:24.804Z,99269.36
2019-05-09T04:55:28.475Z,99266.25
2019-05-09T04:56:38.181Z,99267.96
2019-05-09T04:57:40.425Z,99264.45
2019-05-09T04:58:42.632Z,99262.23
2019-05-09T04:59:44.837Z,99263.55
2019-05-09T05:01:21.225Z,99264.84
2019-05-09T05:02:42.832Z,99269.77
2019-05-09T05:03:45.365Z,99269.36
2019-05-09T05:04:48.023Z,99272.38
2019-05-09T05:05:50.313Z,99268.46
2019-05-09T05:06:52.535Z,99267.66
2019-05-09T05:07:54.741Z,99270.27
2019-05-09T05:08:58.608Z,99274.19
2019-05-09T05:10:00.979Z,99275.09
2019-05-09T05:11:04.759Z,99276.39
2019-05-09T05:12:08.378Z,99272.48
2019-05-09T05:13:23.304Z,99274.98
2019-05-09T05:14:23.884Z,99277.33
2019-05-09T05:15:27.634Z,99281.25
2019-05-09T05:16:29.898Z,99277.33
2019-05-09T05:17:32.112Z,99280.71
2019-05-09T05:18:34.325Z,99281.11
2019-05-09T05:19:38.370Z,99282.83
2019-05-09T05:20:40.398Z,99284.23
2019-05-09T05:21:42.608Z,99288.14
2019-05-09T05:22:58.109Z,99288.05
2019-05-09T05:24:08.278Z,99289.86
2019-05-09T05:25:10.487Z,99284.63
2019-05-09T05:26:12.858Z,99287.24
2019-05-09T05:27:18.631Z,99290.66
2019-05-09T05:28:18.960Z,99291.56
2019-05-09T05:29:21.177Z,99296.78
2019-05-09T05:30:23.461Z,99297.69
2019-05-09T05:31:25.711Z,99300.70
2019-05-09T05:32:38.608Z,99301.20
2019-05-09T05:33:53.579Z,99299.00
2019-05-09T05:35:18.328Z,99296.52
2019-05-09T05:36:20.537Z,99288.69
2019-05-09T05:37:22.742Z,99289.59
2019-05-09T05:38:26.981Z,99288.28
2019-05-09T05:39:28.810Z,99280.84
2019-05-09T05:40:33.573Z,99289.19
2019-05-09T05:41:34.971Z,99286.97
2019-05-09T05:42:38.839Z,99288.69
2019-05-09T05:43:44.594Z,99289.98
2019-05-09T05:44:44.948Z,99297.82
2019-05-09T05:46:09.175Z,99287.78
2019-05-09T05:47:29.260Z,99293.10
2019-05-09T05:48:31.734Z,99296.61
2019-05-09T05:49:33.949Z,99294.00
2019-05-09T05:50:38.132Z,99294.00
2019-05-09T05:51:49.263Z,99284.86
2019-05-09T05:52:51.510Z,99289.69
2019-05-09T05:53:53.732Z,99290.19
2019-05-09T05:54:58.067Z,99289.28
2019-05-09T05:55:59.989Z,99294.10
2019-05-09T05:57:02.350Z,99296.71
2019-05-09T05:58:04.603Z,99284.96
2019-05-09T05:59:08.529Z,99287.17
2019-05-09T06:00:11.828Z,99290.19
2019-05-09T06:01:14.166Z,99289.28
2019-05-09T06:02:17.751Z,99293.70
2019-05-09T06:03:21.576Z,99291.98
2019-05-09T06:04:23.835Z,99288.47
2019-05-09T06:05:27.778Z,99291.59
2019-05-09T06:06:32.955Z,99292.49
2019-05-09T06:07:33.830Z,99298.52
2019-05-09T06:08:38.046Z,99291.59
2019-05-09T06:09:40.024Z,99295.50
2019-05-09T06:10:44.149Z,99295.10
2019-05-09T06:11:48.515Z,99301.23
2019-05-09T06:12:50.295Z,99298.62
2019-05-09T06:13:56.936Z,99303.74
2019-05-09T06:14:58.339Z,99302.03
2019-05-09T06:16:00.198Z,99304.14
2019-05-09T06:17:02.430Z,99310.67
2019-05-09T06:18:04.760Z,99302.34
2019-05-09T06:19:09.017Z,99306.75
2019-05-09T06:20:11.944Z,99309.37
2019-05-09T06:21:14.094Z,99308.47
2019-05-09T06:22:18.300Z,99309.37
2019-05-09T06:23:21.196Z,99305.45
2019-05-09T06:24:23.441Z,99309.37
2019-05-09T06:25:30.084Z,99311.48
2019-05-09T06:26:30.402Z,99315.50
2019-05-09T06:27:32.698Z,99311.98
2019-05-09T06:28:35.075Z,99310.27
2019-05-09T06:29:38.596Z,99315.90
2019-05-09T06:30:41.374Z,99312.88
2019-05-09T06:31:43.713Z,99313.38
2019-05-09T06:32:47.712Z,99315.59
2019-05-09T06:33:53.566Z,99312.98
2019-05-09T06:34:53.762Z,99317.30
2019-05-09T06:35:55.964Z,99317.30
2019-05-09T06:36:58.766Z,99314.69
2019-05-09T06:38:02.098Z,99315.59
2019-05-09T06:39:08.154Z,99318.20
2019-05-09T06:40:09.877Z,99322.63
2019-05-09T06:41:12.291Z,99326.95
2019-05-09T06:42:14.583Z,99317.80
2019-05-09T06:43:25.434Z,99327.05
2019-05-09T06:44:44.220Z,99327.84
2019-05-09T06:46:05.378Z,99329.66
2019-05-09T06:47:18.391Z,99331.36
2019-05-09T06:48:19.952Z,99330.19
2019-05-09T06:49:31.454Z,99330.59
2019-05-09T06:50:32.480Z,99330.19
2019-05-09T06:51:38.561Z,99324.44
2019-05-09T06:52:41.551Z,99332.27
2019-05-09T06:53:45.412Z,99327.45
2019-05-09T06:54:49.394Z,99332.67
2019-05-09T06:55:52.645Z,99334.88
2019-05-09T06:56:54.832Z,99335.42
2019-05-09T06:57:58.333Z,99338.80
2019-05-09T06:59:00.844Z,99338.80
2019-05-09T07:00:03.618Z,99337.49
2019-05-09T07:01:24.532Z,99333.08
2019-05-09T07:02:40.609Z,99336.19
2019-05-09T07:03:42.838Z,99345.33
2019-05-09T07:04:47.952Z,99339.84
2019-05-09T07:06:08.321Z,99340.34
2019-05-09T07:07:20.291Z,99345.56
2019-05-09T07:08:31.398Z,99343.75
2019-05-09T07:09:39.127Z,99342.85
2019-05-09T07:10:41.355Z,99349.88
2019-05-09T07:11:43.634Z,99344.16
2019-05-09T07:12:48.668Z,99353.00
2019-05-09T07:13:52.142Z,99347.67
2019-05-09T07:14:54.372Z,99351.59
2019-05-09T07:15:58.539Z,99351.99
2019-05-09T07:17:00.543Z,99357.22
2019-05-09T07:18:02.761Z,99356.31
2019-05-09T07:19:05.047Z,99348.08
2019-05-09T07:20:08.470Z,99352.39
2019-05-09T07:21:10.925Z,99358.02
2019-05-09T07:22:39.194Z,99355.28
2019-05-09T07:23:41.906Z,99363.11
2019-05-09T07:25:09.893Z,99358.29
2019-05-09T07:26:10.459Z,99357.38
2019-05-09T07:27:12.708Z,99350.95
2019-05-09T07:28:14.915Z,99353.47
2019-05-09T07:29:17.861Z,99357.89
2019-05-09T07:30:39.714Z,99355.68
2019-05-09T07:31:48.000Z,99361.41
2019-05-09T07:33:27.977Z,99358.80
2019-05-09T07:34:35.092Z,99363.61
2019-05-09T07:35:38.221Z,99364.02
2019-05-09T07:36:40.613Z,99367.16
2019-05-09T07:37:42.802Z,99365.86
2019-05-09T07:38:47.628Z,99365.05
2019-05-09T07:39:48.963Z,99363.34
2019-05-09T07:40:51.161Z,99365.95
2019-05-09T07:41:53.370Z,99359.43
2019-05-09T07:42:58.366Z,99368.97
2019-05-09T07:44:00.687Z,99365.95
2019-05-09T07:45:02.999Z,99366.86
2019-05-09T07:46:09.007Z,99367.77
2019-05-09T07:47:11.490Z,99374.70
2019-05-09T07:48:13.714Z,99369.98
2019-05-09T07:49:17.567Z,99370.38
2019-05-09T07:50:19.953Z,99376.00
2019-05-09T07:51:22.207Z,99374.70
2019-05-09T07:52:24.460Z,99373.70
2019-05-09T07:53:28.398Z,99365.45
2019-05-09T07:54:30.677Z,99370.28
2019-05-09T07:55:32.944Z,99367.36
2019-05-09T07:56:37.645Z,99366.96
2019-05-09T07:57:46.457Z,99366.59
2019-05-09T07:58:43.032Z,99370.20
2019-05-09T07:59:45.331Z,99363.38
2019-05-09T08:00:48.305Z,99369.00
2019-05-09T08:01:50.741Z,99376.94
2019-05-09T08:02:53.051Z,99365.98
2019-05-09T08:03:55.429Z,99372.62
2019-05-09T08:04:59.243Z,99374.42
2019-05-09T08:06:01.662Z,99370.91
2019-05-09T08:07:03.975Z,99373.52
2019-05-09T08:08:07.974Z,99379.25
2019-05-09T08:09:10.248Z,99381.45
2019-05-09T08:10:12.466Z,99371.11
2019-05-09T08:11:14.652Z,99377.64
2019-05-09T08:12:17.955Z,99374.63
2019-05-09T08:13:21.521Z,99376.43
2019-05-09T08:14:24.127Z,99376.43
2019-05-09T08:15:28.043Z,99381.66
2019-05-09T08:16:30.330Z,99385.31
2019-05-09T08:17:33.713Z,99377.56
2019-05-09T08:18:37.567Z,99382.39
2019-05-09T08:19:41.019Z,99380.45
2019-05-09T08:20:43.231Z,99378.47
2019-05-09T08:21:47.811Z,99377.97
2019-05-09T08:22:57.270Z,99382.80
2019-05-09T08:23:54.477Z,99380.58
2019-05-09T08:24:57.607Z,99387.11
2019-05-09T08:26:04.157Z,99389.33
2019-05-09T08:27:03.864Z,99386.21
2019-05-09T08:28:08.710Z,99391.03
2019-05-09T08:29:10.215Z,99393.25
2019-05-09T08:30:12.415Z,99391.53
2019-05-09T08:31:17.808Z,99392.94
2019-05-09T08:32:20.251Z,99392.94
2019-05-09T08:33:22.474Z,99396.05
2019-05-09T08:34:24.749Z,99390.42
2019-05-09T08:35:27.940Z,99393.55
2019-05-09T08:36:30.430Z,99396.25
2019-05-09T08:37:32.664Z,99392.83
2019-05-09T08:38:38.533Z,99393.64
2019-05-09T08:39:38.811Z,99397.86
2019-05-09T08:40:53.107Z,99396.25
2019-05-09T08:41:55.424Z,99390.02
2019-05-09T08:42:58.771Z,99396.05
2019-05-09T08:44:01.440Z,99398.27
2019-05-09T08:45:03.650Z,99395.05
2019-05-09T08:46:07.837Z,99399.17
2019-05-09T08:47:09.874Z,99404.70
2019-05-09T08:48:12.034Z,99406.91
2019-05-09T08:49:14.310Z,99402.09
2019-05-09T08:50:30.942Z,99409.02
2019-05-09T08:51:52.223Z,99411.63
2019-05-09T08:52:43.488Z,99420.38
2019-05-09T08:53:48.034Z,99413.44
2019-05-09T08:54:52.863Z,99417.96
2019-05-09T08:55:57.936Z,99414.55
2019-05-09T08:56:59.103Z,99419.47
2019-05-09T08:58:01.327Z,99416.55
2019-05-09T08:59:03.639Z,99418.66
2019-05-09T09:00:07.958Z,99415.25
2019-05-09T09:01:11.637Z,99410.92
2019-05-09T09:02:21.671Z,99418.66
2019-05-09T09:03:18.710Z,99418.27
2019-05-09T09:04:20.994Z,99419.70
2019-05-09T09:05:24.990Z,99421.01
2019-05-09T09:06:27.859Z,99416.28
2019-05-09T09:07:30.320Z,99419.30
2019-05-09T09:08:32.552Z,99425.30
2019-05-09T09:09:34.754Z,99423.63
2019-05-09T09:10:38.397Z,99419.70
2019-05-09T09:11:41.022Z,99419.70
2019-05-09T09:12:43.264Z,99420.07
2019-05-09T09:13:45.490Z,99420.47
2019-05-09T09:14:47.970Z,99413.53
2019-05-09T09:16:08.615Z,99418.90
2019-05-09T09:16:54.123Z,99419.80
2019-05-09T09:17:57.865Z,99424.63
2019-05-09T09:19:00.327Z,99420.70
2019-05-09T09:20:03.653Z,99418.69
2019-05-09T09:21:08.072Z,99413.87
2019-05-09T09:22:09.713Z,99417.79
2019-05-09T09:23:11.954Z,99417.69
2019-05-09T09:24:14.198Z,99417.28
2019-05-09T09:25:18.373Z,99428.64
2019-05-09T09:26:20.368Z,99422.02
2019-05-09T09:27:22.560Z,99428.64
2019-05-09T09:28:27.665Z,99419.09
2019-05-09T09:29:28.823Z,99420.91
2019-05-09T09:30:31.066Z,99417.69
2019-05-09T09:31:33.642Z,99424.72
2019-05-09T09:32:38.514Z,99426.44
2019-05-09T09:33:39.996Z,99426.23
2019-05-09T09:34:42.227Z,99423.09
2019-05-09T09:35:44.463Z,99415.65
2019-05-09T09:36:48.033Z,99424.53
2019-05-09T09:37:52.325Z,99423.31
2019-05-09T09:38:54.292Z,99426.84
2019-05-09T09:39:58.242Z,99425.23
2019-05-09T09:41:00.404Z,99422.52
2019-05-09T09:42:02.719Z,99426.34
2019-05-09T09:43:04.925Z,99430.36
2019-05-09T09:44:08.734Z,99429.05
2019-05-09T09:45:11.038Z,99432.06
2019-05-09T09:46:14.787Z,99427.23
2019-05-09T09:47:22.424Z,99433.67
2019-05-09T09:48:21.163Z,99435.75
2019-05-09T09:49:23.372Z,99431.83
2019-05-09T09:50:27.504Z,99436.28
2019-05-09T09:51:29.636Z,99439.30
2019-05-09T09:52:34.263Z,99443.32
2019-05-09T09:53:38.223Z,99442.21
2019-05-09T09:54:39.630Z,99444.22
2019-05-09T09:55:41.836Z,99448.55
2019-05-09T09:56:47.934Z,99442.82
2019-05-09T09:57:50.166Z,99446.34
2019-05-09T09:59:02.350Z,99446.73
2019-05-09T10:00:22.133Z,99453.55
2019-05-09T10:01:28.689Z,99445.20
2019-05-09T10:02:34.052Z,99447.41
2019-05-09T10:03:36.248Z,99452.73
2019-05-09T10:04:38.374Z,99451.83
2019-05-09T10:05:40.498Z,99455.34
2019-05-09T10:06:42.648Z,99456.79
2019-05-09T10:07:44.849Z,99458.50
2019-05-09T10:08:48.964Z,99460.81
2019-05-09T10:09:50.908Z,99462.92
2019-05-09T10:10:53.102Z,99462.92
2019-05-09T10:11:58.106Z,99462.02
2019-05-09T10:13:03.733Z,99459.50
2019-05-09T10:14:03.462Z,99464.73
2019-05-09T10:15:12.039Z,99458.80
2019-05-09T10:16:42.266Z,99457.49
2019-05-09T10:17:53.478Z,99460.01
2019-05-09T10:19:08.264Z,99466.14
2019-05-09T10:20:18.320Z,99463.92
2019-05-09T10:21:23.732Z,99457.49
2019-05-09T10:22:26.961Z,99463.22
2019-05-09T10:23:29.420Z,99463.12
2019-05-09T10:24:31.625Z,99461.81
2019-05-09T10:25:33.857Z,99462.02
2019-05-09T10:26:38.979Z,99463.42
2019-05-09T10:27:41.343Z,99465.94
2019-05-09T10:28:45.353Z,99462.92
2019-05-09T10:29:47.969Z,99471.27
2019-05-09T10:30:50.312Z,99475.28
2019-05-09T10:31:52.521Z,99466.34
2019-05-09T10:32:54.741Z,99469.55
2019-05-09T10:33:58.003Z,99462.52
2019-05-09T10:35:00.348Z,99464.12
2019-05-09T10:36:04.730Z,99469.86
2019-05-09T10:37:07.686Z,99467.64
2019-05-09T10:38:10.054Z,99468.95
2019-05-09T10:39:12.254Z,99466.74
2019-05-09T10:40:14.499Z,99466.23
2019-05-09T10:41:16.720Z,99469.35
2019-05-09T10:42:31.640Z,99459.80
2019-05-09T10:43:48.412Z,99467.05
2019-05-09T10:44:58.238Z,99473.78
2019-05-09T10:46:08.432Z,99474.98
2019-05-09T10:47:29.241Z,99469.35
2019-05-09T10:48:31.432Z,99463.73
2019-05-09T10:49:33.650Z,99471.56
2019-05-09T10:50:43.181Z,99468.45
2019-05-09T10:51:39.739Z,99470.16
2019-05-09T10:52:41.936Z,99472.06
2019-05-09T10:53:44.129Z,99473.07
2019-05-09T10:54:46.340Z,99473.07
2019-05-09T10:55:48.538Z,99479.61
2019-05-09T10:56:50.764Z,99472.67
2019-05-09T10:57:53.165Z,99471.36
2019-05-09T10:58:55.532Z,99476.19
2019-05-09T10:59:58.083Z,99475.69
2019-05-09T11:01:00.337Z,99478.20
2019-05-09T11:02:02.547Z,99480.41
2019-05-09T11:03:04.742Z,99484.43
2019-05-09T11:04:09.796Z,99480.41
2019-05-09T11:05:11.983Z,99477.70
2019-05-09T11:06:14.177Z,99478.30
2019-05-09T11:07:18.197Z,99481.55
2019-05-09T11:08:20.167Z,99482.45
2019-05-09T11:09:22.489Z,99483.23
2019-05-09T11:10:29.445Z,99489.26
2019-05-09T11:11:29.045Z,99482.22
2019-05-09T11:12:31.398Z,99485.34
2019-05-09T11:13:33.618Z,99490.56
2019-05-09T11:14:37.423Z,99483.36
2019-05-09T11:15:39.666Z,99481.55
2019-05-09T11:16:46.376Z,99481.92
2019-05-09T11:17:47.484Z,99488.36
2019-05-09T11:18:49.589Z,99487.69
2019-05-09T11:19:51.795Z,99488.99
2019-05-09T11:20:53.984Z,99492.51
2019-05-09T11:21:58.493Z,99485.17
2019-05-09T11:23:00.035Z,99493.52
2019-05-09T11:24:02.231Z,99489.39
2019-05-09T11:25:04.442Z,99491.06
2019-05-09T11:26:06.642Z,99486.64
2019-05-09T11:27:08.871Z,99492.17
2019-05-09T11:28:14.782Z,99494.28
2019-05-09T11:29:15.101Z,99498.20
2019-05-09T11:30:17.685Z,99496.80
2019-05-09T11:31:20.088Z,99498.10
2019-05-09T11:32:22.493Z,99499.91
2019-05-09T11:33:24.724Z,99499.91
2019-05-09T11:34:26.907Z,99499.41
2019-05-09T11:35:29.111Z,99499.91
2019-05-09T11:36:31.371Z,99506.75
2019-05-09T11:37:33.591Z,99513.08
2019-05-09T11:38:39.852Z,99507.75
2019-05-09T11:39:42.202Z,99511.27
2019-05-09T11:40:43.619Z,99512.17
2019-05-09T11:41:48.650Z,99507.75
2019-05-09T11:42:49.687Z,99509.56
2019-05-09T11:43:51.913Z,99510.47
2019-05-09T11:44:54.099Z,99505.24
2019-05-09T11:45:58.055Z,99517.51
2019-05-09T11:47:00.062Z,99510.57
2019-05-09T11:48:02.342Z,99509.16
2019-05-09T11:49:04.554Z,99511.38
2019-05-09T11:50:08.869Z,99511.38
2019-05-09T11:51:10.597Z,99506.05
2019-05-09T11:52:12.800Z,99518.71
2019-05-09T11:53:17.527Z,99518.71
2019-05-09T11:54:19.481Z,99511.27
2019-05-09T11:55:34.739Z,99521.73
2019-05-09T11:56:25.809Z,99516.09
2019-05-09T11:57:31.249Z,99522.23
2019-05-09T11:58:31.846Z,99517.00
2019-05-09T11:59:34.040Z,99509.16
2019-05-09T12:00:38.139Z,99515.59
2019-05-09T12:01:40.098Z,99520.83
2019-05-09T12:02:42.307Z,99516.50
2019-05-09T12:03:44.511Z,99522.33
2019-05-09T12:04:48.672Z,99517.10
2019-05-09T12:05:50.563Z,99519.95
2019-05-09T12:06:52.764Z,99520.86
2019-05-09T12:07:54.975Z,99519.66
2019-05-09T12:08:58.857Z,99523.47
2019-05-09T12:10:01.039Z,99527.30
2019-05-09T12:11:03.224Z,99524.28
2019-05-09T12:12:05.451Z,99531.22
2019-05-09T12:13:08.644Z,99531.58
2019-05-09T12:14:10.964Z,99516.44
2019-05-09T12:15:13.178Z,99525.05
2019-05-09T12:16:18.098Z,99526.36
2019-05-09T12:17:19.873Z,99524.55
2019-05-09T12:18:22.144Z,99527.16
2019-05-09T12:19:24.340Z,99524.55
2019-05-09T12:20:27.703Z,99530.67
2019-05-09T12:21:30.213Z,99520.12
2019-05-09T12:22:32.453Z,99520.63
2019-05-09T12:23:34.645Z,99524.95
2019-05-09T12:24:38.445Z,99527.16
2019-05-09T12:25:41.204Z,99523.38
2019-05-09T12:26:43.359Z,99516.03
2019-05-09T12:27:45.566Z,99519.16
2019-05-09T12:28:48.576Z,99519.66
2019-05-09T12:29:50.872Z,99521.86
2019-05-09T12:30:53.095Z,99516.64
2019-05-09T12:31:55.294Z,99517.84
2019-05-09T12:32:58.902Z,99521.27
2019-05-09T12:34:01.391Z,99520.36
2019-05-09T12:35:03.584Z,99518.14
2019-05-09T12:36:05.910Z,99521.13